Time;durP1;ratioP1;P1;durP2;ratioP2;P2;SDS_P1;SDS_P2;PMS_P1;PMS_P2;Temp;Humidity;BMP_temperature;BMP_pressure;BME280_temperature;BME280_humidity;BME280_pressure;Samples;Min_cycle;Max_cycle;Signal;HPM_P1;HPM_P2
2023/05/02 00:01:42;;;;;;;16.53;11.90;;;;;;;-141.97;76.43;47580.59;5055183;28;20234;-80
2023/05/02 00:04:07;;;;;;;15.70;11.93;;;;;;;-141.97;76.40;47594.03;5055153;28;20173;-79
2023/05/02 00:06:32;;;;;;;15.50;11.70;;;;;;;-141.97;75.71;47609.41;5055281;28;20588;-78
2023/05/02 00:08:58;;;;;;;16.27;11.20;;;;;;;-141.97;75.30;47615.19;5054717;28;20185;-78
2023/05/02 00:11:23;;;;;;;16.40;11.53;;;;;;;-141.97;75.24;47617.09;5055110;28;20268;-78
2023/05/02 00:13:49;;;;;;;16.40;11.63;;;;;;;-141.97;75.27;47626.72;5055108;28;20215;-79
2023/05/02 00:16:15;;;;;;;17.10;11.77;;;;;;;-141.97;74.87;47599.81;5054978;28;20166;-79
2023/05/02 00:18:40;;;;;;;17.40;12.00;;;;;;;-141.97;74.78;47607.50;5054854;28;20162;-77
2023/05/02 00:21:07;;;;;;;17.33;11.70;;;;;;;-141.97;74.14;47586.34;5054517;28;20166;-78
2023/05/02 00:23:33;;;;;;;17.47;11.43;;;;;;;-141.97;73.50;47569.06;5054807;28;20173;-79
2023/05/02 00:25:59;;;;;;;19.37;12.13;;;;;;;-141.97;73.19;47603.66;5054352;28;20161;-79
2023/05/02 00:28:25;;;;;;;17.23;11.43;;;;;;;-141.97;73.21;47634.41;5054443;28;20193;-79
2023/05/02 00:30:51;;;;;;;18.67;11.63;;;;;;;-141.97;72.90;47622.88;5054875;28;20787;-79
2023/05/02 00:33:16;;;;;;;16.40;11.10;;;;;;;-141.97;72.67;47644.00;5058967;28;20181;-79
2023/05/02 00:35:42;;;;;;;16.40;11.00;;;;;;;-141.97;72.50;47622.88;5060766;28;20157;-78
2023/05/02 00:38:07;;;;;;;15.03;10.60;;;;;;;-141.97;72.46;47620.94;5055060;28;20330;-79
2023/05/02 00:40:43;;;;;;;18.67;11.07;;;;;;;-141.97;72.85;47601.72;5036984;28;20257;-78
2023/05/02 00:43:09;;;;;;;15.13;10.77;;;;;;;-141.97;72.67;47634.41;5037385;28;20554;-79
2023/05/02 00:45:35;;;;;;;16.00;10.10;;;;;;;-141.97;72.45;47624.78;5054833;28;20165;-79
2023/05/02 00:48:01;;;;;;;13.20;9.97;;;;;;;-141.97;72.44;47597.88;5053047;28;20200;-78
2023/05/02 00:50:28;;;;;;;12.00;9.30;;;;;;;-141.97;71.83;47588.28;5036820;28;20200;-77
2023/05/02 00:52:54;;;;;;;13.43;9.83;;;;;;;-141.97;71.80;47624.78;5054045;28;20226;-78
2023/05/02 00:55:20;;;;;;;13.93;9.70;;;;;;;-141.97;71.23;47615.19;5054022;28;20248;-78
2023/05/02 00:57:45;;;;;;;13.60;9.30;;;;;;;-141.97;71.28;47622.88;5054674;28;20169;-78
2023/05/02 01:00:12;;;;;;;14.67;10.00;;;;;;;-141.97;71.34;47603.66;5054015;28;20169;-79
2023/05/02 01:03:04;;;;;;;14.63;10.30;;;;;;;-141.97;72.06;47586.34;5054375;28;20172;-79
2023/05/02 01:06:05;;;;;;;13.83;9.60;;;;;;;-141.97;71.11;47628.63;5035770;28;20165;-78
2023/05/02 01:08:42;;;;;;;13.47;8.93;;;;;;;-141.97;71.06;47628.63;4972918;28;20256;-79
2023/05/02 01:11:17;;;;;;;14.27;9.40;;;;;;;-141.97;71.36;47599.81;4972929;28;20194;-78
2023/05/02 01:13:45;;;;;;;14.93;10.10;;;;;;;-141.97;71.34;47628.63;4972645;28;20191;-79
2023/05/02 01:16:13;;;;;;;12.17;9.13;;;;;;;-141.97;71.40;47605.56;4973055;28;20169;-77
2023/05/02 01:18:41;;;;;;;13.17;9.43;;;;;;;-141.97;71.75;47617.09;4973064;28;20592;-78
2023/05/02 01:21:09;;;;;;;14.40;9.67;;;;;;;-141.97;71.79;47615.19;4956638;28;20211;-79
2023/05/02 01:23:54;;;;;;;13.97;9.43;;;;;;;-141.97;71.34;47649.78;4972995;28;20683;-78
2023/05/02 01:26:43;;;;;;;15.23;9.60;;;;;;;-141.97;71.13;47624.78;4953224;29;20243;-78
2023/05/02 01:29:12;;;;;;;13.57;9.57;;;;;;;-141.97;71.13;47603.66;4954141;29;20303;-79
2023/05/02 01:31:41;;;;;;;15.80;10.00;;;;;;;-141.97;70.50;47624.78;4954438;29;20204;-78
2023/05/02 01:34:09;;;;;;;16.53;9.50;;;;;;;-141.97;70.70;47592.13;4966880;28;20153;-78
2023/05/02 01:36:36;;;;;;;16.50;10.57;;;;;;;-141.97;70.06;47644.00;4968561;28;20200;-78
2023/05/02 01:39:06;;;;;;;14.10;9.70;;;;;;;-141.97;69.60;47636.31;4953642;29;20323;-78
2023/05/02 01:41:33;;;;;;;13.63;8.93;;;;;;;-141.97;69.18;47634.41;4952957;29;20272;-78
2023/05/02 01:44:01;;;;;;;13.30;8.57;;;;;;;-141.97;68.42;47630.56;4981292;28;20634;-78
2023/05/02 01:46:33;;;;;;;15.77;9.33;;;;;;;-141.97;69.11;47580.59;5011160;28;20593;-77
2023/05/02 01:49:02;;;;;;;14.43;9.10;;;;;;;-141.97;69.06;47584.44;4995237;28;20281;-76
2023/05/02 01:51:31;;;;;;;15.03;8.53;;;;;;;-141.97;69.26;47574.81;5011121;28;20187;-77
2023/05/02 01:54:07;;;;;;;13.27;8.73;;;;;;;-141.97;68.71;47622.88;5011186;28;20175;-79
2023/05/02 01:56:35;;;;;;;11.70;8.67;;;;;;;-141.97;68.77;47613.25;5010991;28;20615;-78
2023/05/02 01:59:05;;;;;;;11.50;8.30;;;;;;;-141.97;69.02;47665.16;5010966;28;20167;-79
2023/05/02 02:01:32;;;;;;;12.83;8.97;;;;;;;-141.97;69.10;47620.94;5011209;28;20194;-79
2023/05/02 02:03:59;;;;;;;12.53;8.80;;;;;;;-141.97;69.04;47663.22;5041429;28;20220;-79
2023/05/02 02:06:26;;;;;;;13.33;8.60;;;;;;;-141.97;69.64;47630.56;5029617;28;20543;-79
2023/05/02 02:08:51;;;;;;;13.63;9.00;;;;;;;-141.97;69.66;47592.13;5014939;28;20194;-78
2023/05/02 02:11:23;;;;;;;13.60;9.47;;;;;;;-141.97;69.72;47622.88;5032937;28;20296;-79
2023/05/02 02:13:54;;;;;;;14.50;9.33;;;;;;;-141.97;69.76;47630.56;5033104;28;20237;-78
2023/05/02 02:16:27;;;;;;;15.00;9.30;;;;;;;-141.97;70.08;47615.19;5032410;28;20228;-79
2023/05/02 02:18:55;;;;;;;13.83;8.90;;;;;;;-141.97;69.83;47726.66;5031654;28;20159;-79
2023/05/02 02:21:22;;;;;;;13.43;8.80;;;;;;;-141.97;69.62;47630.56;5032799;28;20162;-78
2023/05/02 02:23:52;;;;;;;15.53;8.47;;;;;;;-141.97;69.66;47615.19;5032453;28;20170;-79
2023/05/02 02:26:20;;;;;;;13.13;8.67;;;;;;;-141.97;70.08;47630.56;5032458;28;20664;-79
2023/05/02 02:28:47;;;;;;;15.07;9.47;;;;;;;-141.97;69.75;47636.31;5032407;28;20190;-79
2023/05/02 02:31:12;;;;;;;15.03;9.33;;;;;;;-141.97;69.85;47626.72;5032298;28;20166;-79
2023/05/02 02:33:39;;;;;;;15.50;9.83;;;;;;;-141.97;70.00;47638.25;5031913;28;20522;-78
2023/05/02 02:36:14;;;;;;;13.70;8.87;;;;;;;-141.97;69.52;47665.16;5032642;28;20193;-77
2023/05/02 02:39:02;;;;;;;16.80;10.40;;;;;;;-141.97;70.65;47634.41;5032041;28;20244;-79
2023/05/02 02:41:35;;;;;;;21.77;11.60;;;;;;;-141.97;70.55;47632.47;4932976;29;20193;-79
2023/05/02 02:44:11;;;;;;;17.63;10.60;;;;;;;-141.97;70.62;47674.78;4932878;29;21161;-79
2023/05/02 02:46:47;;;;;;;17.87;10.07;;;;;;;-141.97;70.84;47622.88;4933278;29;20193;-78
2023/05/02 02:49:47;;;;;;;24.33;13.40;;;;;;;-141.97;71.00;47763.19;4932702;29;20209;-79
2023/05/02 02:52:50;;;;;;;19.53;12.00;;;;;;;-141.97;71.01;47619.03;4932484;29;20265;-79
2023/05/02 02:55:23;;;;;;;20.43;13.30;;;;;;;-141.97;70.79;47651.69;4933039;29;20169;-79
2023/05/02 02:58:35;;;;;;;30.90;18.40;;;;;;;-141.97;70.68;47597.88;4933059;29;20174;-78
2023/05/02 03:01:05;;;;;;;25.87;16.73;;;;;;;-141.97;71.02;47651.69;4913388;29;20201;-78
2023/05/02 03:03:31;;;;;;;20.97;13.37;;;;;;;-141.97;71.04;47624.78;4913558;29;20174;-78
2023/05/02 03:05:58;;;;;;;18.83;10.33;;;;;;;-141.97;70.88;47640.16;4914183;29;20615;-78
2023/05/02 03:08:24;;;;;;;16.60;9.47;;;;;;;-141.97;71.36;47622.88;4914246;29;20265;-78
2023/05/02 03:10:50;;;;;;;17.50;9.87;;;;;;;-141.97;72.32;47667.06;4913627;29;20194;-79
2023/05/02 03:13:15;;;;;;;18.00;10.33;;;;;;;-141.97;72.58;47615.19;4913559;29;20198;-78
2023/05/02 03:15:52;;;;;;;18.23;10.40;;;;;;;-141.97;72.87;47630.56;4913331;29;20180;-79
2023/05/02 03:18:18;;;;;;;18.87;11.10;;;;;;;-141.97;72.93;47615.19;4936666;28;20272;-78
2023/05/02 03:20:44;;;;;;;20.00;11.17;;;;;;;-141.97;72.96;47580.59;4970699;28;20176;-79
2023/05/02 03:23:09;;;;;;;17.07;10.80;;;;;;;-141.97;72.86;47590.19;4971072;28;20172;-78
2023/05/02 03:25:35;;;;;;;20.37;11.97;;;;;;;-141.97;72.73;47659.38;4964812;28;20210;-76
2023/05/02 03:28:01;;;;;;;28.27;12.07;;;;;;;-141.97;72.26;47657.47;4989689;28;20257;-79
2023/05/02 03:30:30;;;;;;;22.10;11.63;;;;;;;-141.97;72.05;47634.41;4991323;28;20656;-79
2023/05/02 03:32:59;;;;;;;26.87;12.20;;;;;;;-141.97;71.87;47592.13;4990554;28;20278;-79
2023/05/02 03:35:24;;;;;;;25.47;12.50;;;;;;;-141.97;71.93;47597.88;5006661;28;20171;-79
2023/05/02 03:37:50;;;;;;;19.03;11.27;;;;;;;-141.97;72.95;47572.91;5030317;28;20196;-79
2023/05/02 03:40:15;;;;;;;23.27;12.10;;;;;;;-141.97;75.61;47607.50;5051722;28;20248;-79
2023/05/02 03:42:42;;;;;;;19.53;11.07;;;;;;;-141.97;77.44;47605.56;5051217;28;20214;-78
2023/05/02 03:45:07;;;;;;;19.97;10.67;;;;;;;-141.97;78.12;47630.56;5050492;28;20181;-79
2023/05/02 03:47:33;;;;;;;21.33;11.37;;;;;;;-141.97;77.90;47663.22;5051465;28;20169;-78
2023/05/02 03:49:59;;;;;;;24.20;12.17;;;;;;;-141.97;77.33;47626.72;5051622;28;20211;-78
2023/05/02 03:52:25;;;;;;;24.47;12.47;;;;;;;-141.97;76.26;47792.03;5051248;28;20257;-77
2023/05/02 03:54:50;;;;;;;25.27;14.13;;;;;;;-141.97;75.17;47624.78;5051383;28;20205;-77
2023/05/02 03:57:17;;;;;;;23.27;12.40;;;;;;;-141.97;74.23;47636.31;5050882;28;20221;-79
2023/05/02 03:59:44;;;;;;;28.83;13.00;;;;;;;-141.97;73.55;47615.19;5051460;28;20158;-78
2023/05/02 04:02:10;;;;;;;28.10;12.47;;;;;;;-141.97;73.38;47628.63;5051271;28;20641;-79
2023/05/02 04:04:36;;;;;;;23.07;12.00;;;;;;;-141.97;73.02;47649.78;5051653;28;20253;-78
2023/05/02 04:07:01;;;;;;;24.40;11.70;;;;;;;-141.97;72.67;47613.25;5051375;28;20201;-79
2023/05/02 04:09:27;;;;;;;22.00;11.77;;;;;;;-141.97;72.44;47624.78;5033176;28;20205;-80
2023/05/02 04:11:53;;;;;;;21.60;11.67;;;;;;;-141.97;71.95;47622.88;5051248;28;20219;-78
2023/05/02 04:14:18;;;;;;;26.77;13.10;;;;;;;-141.97;71.52;47565.22;5051660;28;20157;-79
2023/05/02 04:16:51;;;;;;;29.77;13.30;;;;;;;-141.97;71.54;47653.63;5050204;28;20191;-79
2023/05/02 04:19:17;;;;;;;32.60;15.13;;;;;;;-141.97;70.96;47634.41;5050968;28;20169;-79
2023/05/02 04:21:44;;;;;;;26.20;12.60;;;;;;;-141.97;70.40;47657.47;5050894;28;20165;-79
2023/05/02 04:24:09;;;;;;;32.47;13.70;;;;;;;-141.97;70.18;47653.63;5050873;28;20173;-79
2023/05/02 04:26:35;;;;;;;58.43;25.33;;;;;;;-141.97;70.68;47722.81;5050858;28;20165;-78
2023/05/02 04:29:00;;;;;;;50.93;22.80;;;;;;;-141.97;69.66;47630.56;5051148;28;20669;-78
2023/05/02 04:31:26;;;;;;;30.70;14.77;;;;;;;-141.97;68.78;47703.59;5068060;28;20201;-76
2023/05/02 04:33:51;;;;;;;24.47;13.37;;;;;;;-141.97;68.26;47634.41;5058931;28;20547;-79
2023/05/02 04:36:18;;;;;;;24.77;12.23;;;;;;;-141.97;69.05;47680.53;5051528;28;20166;-78
2023/05/02 04:38:43;;;;;;;28.30;16.53;;;;;;;-141.97;68.33;47630.56;5033625;28;20229;-80
2023/05/02 04:41:09;;;;;;;25.10;14.17;;;;;;;-141.97;68.39;47620.94;5051625;28;20681;-78
2023/05/02 04:43:35;;;;;;;31.60;16.30;;;;;;;-141.97;67.96;47594.03;5019777;28;20236;-78
2023/05/02 04:46:00;;;;;;;30.27;17.23;;;;;;;-141.97;68.00;47636.31;5031955;28;20186;-79
2023/05/02 04:48:26;;;;;;;28.40;14.33;;;;;;;-141.97;66.87;47613.25;5033261;28;20208;-78
2023/05/02 04:50:54;;;;;;;45.13;17.67;;;;;;;-141.97;66.31;47745.88;5052040;28;20195;-78
2023/05/02 04:53:21;;;;;;;25.20;14.13;;;;;;;-141.97;68.42;47603.66;5053997;28;20240;-78
2023/05/02 04:55:46;;;;;;;40.43;21.93;;;;;;;-141.97;69.03;47632.47;5038562;28;20183;-78
2023/05/02 04:58:12;;;;;;;30.40;16.83;;;;;;;-141.97;68.30;47628.63;5033886;28;20173;-80
2023/05/02 05:00:38;;;;;;;21.43;12.53;;;;;;;-141.97;67.16;47651.69;5015746;28;20312;-78
2023/05/02 05:03:05;;;;;;;25.90;12.17;;;;;;;-141.97;66.80;47588.28;5033612;28;20611;-78
2023/05/02 05:05:30;;;;;;;23.93;12.03;;;;;;;-141.97;65.41;47584.44;5033131;28;20204;-79
2023/05/02 05:07:56;;;;;;;19.63;11.70;;;;;;;-141.97;64.20;47651.69;5015855;28;20265;-79
2023/05/02 05:10:21;;;;;;;19.73;11.10;;;;;;;-141.97;64.23;47626.72;5033583;28;20166;-79
2023/05/02 05:12:48;;;;;;;23.60;11.10;;;;;;;-141.97;62.42;47601.72;5033218;28;20163;-79
2023/05/02 05:15:14;;;;;;;19.57;10.83;;;;;;;-141.97;60.70;47626.72;5032839;28;20166;-79
2023/05/02 05:17:39;;;;;;;19.03;10.73;;;;;;;-141.97;59.34;47611.34;5033665;28;20169;-78
2023/05/02 05:20:05;;;;;;;13.73;7.90;;;;;;;-141.97;53.56;47569.06;5015591;28;20635;-79
2023/05/02 05:22:37;;;;;;;13.83;7.43;;;;;;;-141.97;51.78;47597.88;5032937;28;20326;-76
2023/05/02 05:25:03;;;;;;;17.07;8.40;;;;;;;-141.97;51.39;47570.97;5032742;28;20204;-77
2023/05/02 05:27:28;;;;;;;14.23;8.23;;;;;;;-141.97;51.31;47715.13;5014639;28;20189;-79
2023/05/02 05:29:54;;;;;;;15.57;8.47;;;;;;;-141.97;50.96;47590.19;5031934;28;20219;-78
2023/05/02 05:32:20;;;;;;;15.00;8.30;;;;;;;-141.97;51.02;47611.34;5033528;28;20196;-78
2023/05/02 05:34:51;;;;;;;12.37;7.30;;;;;;;-141.97;51.33;47622.88;5032353;28;20473;-78
2023/05/02 05:37:16;;;;;;;11.53;7.07;;;;;;;-141.97;50.36;47613.25;5032580;28;20158;-78
2023/05/02 05:39:41;;;;;;;12.40;7.73;;;;;;;-141.97;50.01;47763.19;5032599;28;20225;-78
2023/05/02 05:42:08;;;;;;;14.23;7.90;;;;;;;-141.97;50.41;47611.34;5032854;28;20276;-78
2023/05/02 05:44:34;;;;;;;12.90;7.53;;;;;;;-141.97;50.68;47549.84;5022940;28;20240;-77
2023/05/02 05:47:00;;;;;;;14.30;8.00;;;;;;;-141.97;50.87;47588.28;5032751;28;20192;-78
2023/05/02 05:49:25;;;;;;;12.10;8.00;;;;;;;-141.97;51.13;47615.19;5033207;28;20194;-78
2023/05/02 05:51:51;;;;;;;12.03;7.90;;;;;;;-141.97;51.41;47588.28;5034240;28;20189;-78
2023/05/02 05:54:17;;;;;;;12.60;7.83;;;;;;;-141.97;51.97;47595.97;5015018;28;20219;-78
2023/05/02 05:56:43;;;;;;;11.93;7.57;;;;;;;-141.97;52.72;47599.81;5032069;28;20166;-78
2023/05/02 05:59:08;;;;;;;13.67;8.10;;;;;;;-141.97;52.57;47624.78;5014751;28;20618;-78
2023/05/02 06:01:34;;;;;;;12.90;7.87;;;;;;;-141.97;51.55;47636.31;5014931;28;20198;-78
2023/05/02 06:04:01;;;;;;;12.23;7.70;;;;;;;-141.97;51.05;47584.44;5031621;28;20158;-78
2023/05/02 06:06:27;;;;;;;12.87;8.40;;;;;;;-141.97;52.18;47630.56;5014057;28;20205;-78
2023/05/02 06:08:53;;;;;;;12.27;8.40;;;;;;;-141.97;52.17;47605.56;5031927;28;20244;-78
2023/05/02 06:11:19;;;;;;;12.30;8.40;;;;;;;-141.97;51.49;47674.78;5031832;28;20197;-78
2023/05/02 06:13:44;;;;;;;14.80;9.00;;;;;;;-141.97;52.25;47584.44;5032032;28;20165;-77
2023/05/02 06:16:10;;;;;;;12.23;8.93;;;;;;;-141.97;51.08;47613.25;5031778;28;20174;-77
2023/05/02 06:18:35;;;;;;;14.80;9.13;;;;;;;-141.97;51.87;47597.88;5031362;28;20572;-77
2023/05/02 06:21:05;;;;;;;15.90;8.63;;;;;;;-141.97;50.72;47599.81;5031239;28;20591;-77
2023/05/02 06:23:31;;;;;;;16.00;8.00;;;;;;;-141.97;49.81;47580.59;5031791;28;20173;-78
2023/05/02 06:26:01;;;;;;;12.90;7.90;;;;;;;-141.97;49.94;47619.03;5027210;28;20200;-79
2023/05/02 06:28:27;;;;;;;12.73;8.20;;;;;;;-141.97;49.08;47570.97;5051756;28;20203;-78
2023/05/02 06:31:00;;;;;;;12.10;8.27;;;;;;;-141.97;49.46;47582.50;5051870;28;20165;-78
2023/05/02 06:33:29;;;;;;;12.67;8.40;;;;;;;-141.97;47.43;47615.19;5051418;28;20264;-78
2023/05/02 06:35:55;;;;;;;10.17;7.63;;;;;;;-141.97;47.79;47588.28;5037856;28;20184;-78
2023/05/02 06:38:21;;;;;;;12.60;7.13;;;;;;;-141.97;46.79;47578.66;5029209;28;20217;-77
2023/05/02 06:40:47;;;;;;;10.97;6.90;;;;;;;-141.97;46.20;47574.81;5049715;28;20649;-77
2023/05/02 06:43:12;;;;;;;12.80;7.80;;;;;;;-141.97;47.05;47622.88;5021214;28;20230;-78
2023/05/02 06:45:39;;;;;;;10.00;7.00;;;;;;;-141.97;46.49;47588.28;5041717;28;20173;-78
2023/05/02 06:48:05;;;;;;;10.67;6.77;;;;;;;-141.97;45.55;47617.09;5051416;28;20219;-78
2023/05/02 06:50:30;;;;;;;11.00;6.90;;;;;;;-141.97;46.25;47603.66;5033276;28;20185;-76
2023/05/02 06:52:55;;;;;;;14.77;9.63;;;;;;;-141.97;46.11;47599.81;5051094;28;20235;-76
2023/05/02 06:55:21;;;;;;;13.10;7.03;;;;;;;-141.97;45.21;47563.28;5050415;28;20177;-78
2023/05/02 06:57:48;;;;;;;8.80;6.87;;;;;;;-141.97;45.50;47597.88;5050652;28;20577;-77
2023/05/02 07:00:16;;;;;;;11.77;6.93;;;;;;;-141.97;45.49;47569.06;5051180;28;20153;-78
2023/05/02 07:02:41;;;;;;;17.37;8.47;;;;;;;-141.97;44.95;47586.34;5050620;28;20157;-78
2023/05/02 07:05:07;;;;;;;12.03;7.20;;;;;;;-141.97;45.09;47599.81;5049964;28;20212;-77
2023/05/02 07:07:32;;;;;;;12.63;7.00;;;;;;;-141.97;44.39;47530.59;5050768;28;20169;-77
2023/05/02 07:09:58;;;;;;;9.97;7.47;;;;;;;-141.97;44.05;47607.50;5033447;28;20225;-78
2023/05/02 07:12:25;;;;;;;11.03;7.27;;;;;;;-141.97;43.85;47574.81;5050996;28;20161;-77
2023/05/02 07:14:50;;;;;;;10.20;6.73;;;;;;;-141.97;43.56;47561.38;5051049;28;20187;-78
2023/05/02 07:17:16;;;;;;;10.93;6.83;;;;;;;-141.97;43.47;47594.03;5050845;28;20173;-77
2023/05/02 07:19:41;;;;;;;11.77;7.47;;;;;;;-141.97;42.29;47592.13;5050962;28;20165;-78
2023/05/02 07:22:07;;;;;;;8.93;6.13;;;;;;;-141.97;42.41;47546.00;5051072;28;20197;-77
2023/05/02 07:24:32;;;;;;;10.80;6.80;;;;;;;-141.97;41.97;47588.28;5032002;28;20184;-78
2023/05/02 07:26:58;;;;;;;9.10;5.90;;;;;;;-141.97;40.54;47551.75;5030912;28;20169;-78
2023/05/02 07:29:23;;;;;;;9.13;5.63;;;;;;;-141.97;40.09;47590.19;5030500;28;20623;-78
2023/05/02 07:31:49;;;;;;;9.43;5.83;;;;;;;-141.97;40.05;47599.81;5031134;28;20219;-77
2023/05/02 07:34:15;;;;;;;10.93;5.37;;;;;;;-141.97;39.79;47615.19;5030771;28;20170;-78
2023/05/02 07:36:40;;;;;;;10.37;5.80;;;;;;;-141.97;38.66;47567.13;5032076;28;20177;-77
2023/05/02 07:39:06;;;;;;;8.97;5.13;;;;;;;-141.97;38.56;47659.38;5035846;28;20241;-77
2023/05/02 07:41:31;;;;;;;6.73;5.03;;;;;;;-141.97;38.49;47496.00;5034794;28;20169;-77
2023/05/02 07:43:57;;;;;;;9.23;5.20;;;;;;;-141.97;37.99;47561.38;5020901;28;20234;-78
2023/05/02 07:46:23;;;;;;;10.20;5.13;;;;;;;-141.97;37.89;47563.28;5032015;28;20180;-77
2023/05/02 07:48:48;;;;;;;10.90;5.40;;;;;;;-141.97;37.79;47576.75;5030482;28;20196;-79
2023/05/02 07:51:14;;;;;;;9.00;5.20;;;;;;;-141.97;37.77;47574.81;5030545;28;20224;-78
2023/05/02 07:53:39;;;;;;;7.67;4.77;;;;;;;-141.97;37.08;47572.91;5030733;28;20600;-78
2023/05/02 07:56:06;;;;;;;9.40;4.80;;;;;;;-141.97;36.16;47565.22;5030251;28;20224;-78
2023/05/02 07:58:31;;;;;;;7.27;4.43;;;;;;;-141.97;36.41;47434.50;5040205;28;20183;-78
2023/05/02 08:00:57;;;;;;;8.70;4.33;;;;;;;-141.97;35.83;47546.00;5050359;28;20158;-78
2023/05/02 08:03:23;;;;;;;6.47;4.10;;;;;;;-141.97;34.88;47553.69;5050491;28;20260;-78
2023/05/02 08:05:48;;;;;;;7.93;4.00;;;;;;;-141.97;34.62;47546.00;5040318;28;20253;-78
2023/05/02 08:08:13;;;;;;;5.90;3.97;;;;;;;-141.97;34.97;47576.75;5030572;28;20193;-78
2023/05/02 08:10:39;;;;;;;6.27;4.00;;;;;;;-141.97;34.27;47549.84;5031184;28;20261;-78
2023/05/02 08:13:07;;;;;;;5.43;3.80;;;;;;;-141.97;33.88;47555.59;5036625;28;20165;-77
2023/05/02 08:15:33;;;;;;;6.90;3.60;;;;;;;-141.97;33.62;47530.59;5035659;28;20174;-76
2023/05/02 08:17:58;;;;;;;7.37;3.67;;;;;;;-141.97;32.68;47553.69;5035331;28;20710;-78
2023/05/02 08:20:24;;;;;;;3.73;3.20;;;;;;;-141.97;32.66;47465.25;5033969;28;20730;-78
2023/05/02 08:22:50;;;;;;;4.33;3.27;;;;;;;-141.97;32.35;47542.16;5034364;28;20216;-78
2023/05/02 08:25:15;;;;;;;5.80;3.57;;;;;;;-141.97;32.19;47547.91;5033514;28;20178;-78
2023/05/02 08:27:41;;;;;;;5.40;3.00;;;;;;;-141.97;32.41;47526.75;5033895;28;20181;-78
2023/05/02 08:30:07;;;;;;;6.53;3.13;;;;;;;-141.97;31.85;47536.38;5033925;28;20229;-78
2023/05/02 08:32:33;;;;;;;4.73;2.90;;;;;;;-141.97;32.21;47634.41;5033439;28;20592;-78
2023/05/02 08:34:58;;;;;;;6.80;3.30;;;;;;;-141.97;32.42;47519.06;5015523;28;20176;-77
2023/05/02 08:37:24;;;;;;;5.60;3.00;;;;;;;-141.97;32.17;47582.50;5033424;28;20166;-78
2023/05/02 08:39:49;;;;;;;6.23;3.10;;;;;;;-141.97;31.50;47563.28;5033237;28;20590;-77
2023/05/02 08:42:15;;;;;;;5.63;2.90;;;;;;;-141.97;31.50;47561.38;5016346;28;20209;-77
2023/05/02 08:44:47;;;;;;;4.30;2.70;;;;;;;-141.97;31.81;47530.59;5026927;28;20321;-78
2023/05/02 08:47:14;;;;;;;5.33;3.23;;;;;;;-141.97;31.58;47553.69;5033720;28;20181;-78
2023/05/02 08:49:40;;;;;;;6.60;3.20;;;;;;;-141.97;31.50;47549.84;5033347;28;20666;-78
2023/05/02 08:52:08;;;;;;;5.83;3.10;;;;;;;-141.97;31.13;47474.88;5033544;28;20189;-78
2023/05/02 08:54:37;;;;;;;5.07;3.20;;;;;;;-141.97;30.67;47519.06;5033397;28;20644;-78
2023/05/02 08:57:03;;;;;;;4.57;2.87;;;;;;;-141.97;31.08;47526.75;5033355;28;20181;-78
2023/05/02 08:59:29;;;;;;;4.63;3.00;;;;;;;-141.97;31.09;47657.47;5015984;28;20174;-76
2023/05/02 09:01:59;;;;;;;5.47;3.00;;;;;;;-141.97;30.86;47557.53;5032971;28;20560;-77
2023/05/02 09:04:31;;;;;;;6.07;2.83;;;;;;;-141.97;30.31;47499.84;5033197;28;20173;-77
2023/05/02 09:06:57;;;;;;;4.83;2.73;;;;;;;-141.97;30.62;47549.84;5032962;28;20200;-77
2023/05/02 09:09:23;;;;;;;6.53;3.00;;;;;;;-141.97;31.03;47455.66;5031787;28;20276;-78
2023/05/02 09:11:51;;;;;;;6.83;2.90;;;;;;;-141.97;30.36;47522.91;5032906;28;20162;-78
2023/05/02 09:14:16;;;;;;;6.87;3.10;;;;;;;-141.97;30.24;47522.91;5032752;28;20257;-77
2023/05/02 09:16:43;;;;;;;7.37;3.07;;;;;;;-141.97;30.71;47507.53;5032910;28;20174;-76
2023/05/02 09:19:08;;;;;;;5.03;2.90;;;;;;;-141.97;30.66;47544.06;5032319;28;20531;-78
2023/05/02 09:21:39;;;;;;;8.73;3.50;;;;;;;-141.97;30.63;47532.53;5032912;28;20269;-78
2023/05/02 09:24:33;;;;;;;5.63;3.00;;;;;;;-141.97;30.33;47538.28;5032783;28;20547;-78
2023/05/02 09:27:03;;;;;;;7.33;2.80;;;;;;;-141.97;30.66;47521.00;4970892;28;20200;-77
2023/05/02 09:29:34;;;;;;;3.80;2.80;;;;;;;-141.97;30.66;47453.72;4974513;28;20223;-77
2023/05/02 09:32:04;;;;;;;6.00;2.93;;;;;;;-141.97;30.82;47515.22;4979519;28;20210;-77
2023/05/02 09:34:36;;;;;;;3.83;2.80;;;;;;;-141.97;31.00;47471.03;4973499;28;20218;-77
2023/05/02 09:37:04;;;;;;;4.10;2.50;;;;;;;-141.97;31.11;47511.38;4990876;28;20274;-76
2023/05/02 09:39:30;;;;;;;4.30;2.60;;;;;;;-141.97;29.76;47496.00;4977543;28;20238;-77
2023/05/02 09:41:56;;;;;;;3.30;2.60;;;;;;;-141.97;30.20;47517.16;4990323;28;20163;-78
2023/05/02 09:44:23;;;;;;;4.80;2.93;;;;;;;-141.97;30.22;47522.91;4970994;28;20242;-78
2023/05/02 09:46:53;;;;;;;6.40;2.80;;;;;;;-141.97;30.43;47546.00;4978627;28;20262;-78
2023/05/02 09:49:37;;;;;;;3.80;2.90;;;;;;;-141.97;30.37;47553.69;4980575;28;20207;-78
2023/05/02 09:52:16;;;;;;;4.50;2.70;;;;;;;-141.97;30.46;47530.59;4990885;28;20186;-79
2023/05/02 09:54:42;;;;;;;6.20;2.80;;;;;;;-141.97;30.63;47547.91;4994788;28;20584;-79
2023/05/02 09:57:09;;;;;;;5.57;2.70;;;;;;;-141.97;30.65;47530.59;5009659;28;20244;-78
2023/05/02 09:59:35;;;;;;;3.43;2.70;;;;;;;-141.97;30.62;47438.34;5009880;28;20378;-78
2023/05/02 10:02:06;;;;;;;6.10;3.00;;;;;;;-141.97;30.70;47507.53;5009090;28;20254;-78
2023/05/02 10:04:33;;;;;;;6.13;2.70;;;;;;;-141.97;30.89;47565.22;5030954;28;20264;-78
2023/05/02 10:07:00;;;;;;;8.07;2.87;;;;;;;-141.97;30.62;47505.63;5033016;28;20162;-78
2023/05/02 10:09:27;;;;;;;3.27;2.43;;;;;;;-141.97;30.66;47503.69;5031733;28;20194;-78
2023/05/02 10:11:55;;;;;;;5.17;2.50;;;;;;;-141.97;30.74;47519.06;5031617;28;20161;-77
2023/05/02 10:14:22;;;;;;;7.27;2.80;;;;;;;-141.97;30.31;47524.84;5031600;28;20241;-78
2023/05/02 10:16:54;;;;;;;7.27;2.60;;;;;;;-141.97;30.57;47476.78;5031543;28;20193;-78
2023/05/02 10:19:38;;;;;;;5.67;2.50;;;;;;;-141.97;30.53;47557.53;5031740;28;20158;-78
2023/05/02 10:22:04;;;;;;;3.80;2.57;;;;;;;-141.97;30.51;47519.06;5013902;28;20605;-78
2023/05/02 10:24:31;;;;;;;5.07;2.73;;;;;;;-141.97;30.84;47546.00;5031416;28;20161;-78
2023/05/02 10:26:58;;;;;;;3.43;2.53;;;;;;;-141.97;30.29;47484.47;5031754;28;20518;-78
2023/05/02 10:29:30;;;;;;;5.07;2.60;;;;;;;-141.97;30.21;47547.91;5031305;28;20194;-77
2023/05/02 10:31:59;;;;;;;7.87;2.60;;;;;;;-141.97;30.31;47542.16;5026898;28;20177;-77
2023/05/02 10:34:26;;;;;;;5.10;2.50;;;;;;;-141.97;29.42;47492.16;5050994;28;20223;-76
2023/05/02 10:36:53;;;;;;;4.07;2.57;;;;;;;-141.97;29.57;47551.75;5033449;28;20165;-77
2023/05/02 10:39:23;;;;;;;5.37;2.43;;;;;;;-141.97;29.62;47496.00;5032337;28;20714;-78
2023/05/02 10:41:52;;;;;;;3.20;2.30;;;;;;;-141.97;29.82;47546.00;5031013;28;20499;-77
2023/05/02 10:44:31;;;;;;;5.87;2.37;;;;;;;-141.97;29.65;47515.22;5020873;28;20238;-78
2023/05/02 10:46:56;;;;;;;5.03;2.57;;;;;;;-141.97;29.38;47553.69;5031274;28;20161;-77
2023/05/02 10:49:26;;;;;;;3.70;2.47;;;;;;;-141.97;29.07;47507.53;5031524;28;20197;-77
2023/05/02 10:51:51;;;;;;;6.97;2.40;;;;;;;-141.97;29.50;47465.25;5036357;28;20655;-77
2023/05/02 10:54:18;;;;;;;4.90;2.50;;;;;;;-141.97;28.99;47507.53;5033752;28;20184;-77
2023/05/02 10:57:00;;;;;;;4.63;2.13;;;;;;;-141.97;29.30;47503.69;5052511;28;20169;-77
2023/05/02 10:59:28;;;;;;;4.03;2.40;;;;;;;-141.97;29.30;47544.06;5051081;28;20531;-77
2023/05/02 11:01:53;;;;;;;2.97;2.20;;;;;;;-141.97;29.24;47546.00;5051144;28;20184;-77
2023/05/02 11:04:19;;;;;;;4.00;2.40;;;;;;;-141.97;29.27;47530.59;5051874;28;20158;-78
2023/05/02 11:06:56;;;;;;;5.50;2.60;;;;;;;-141.97;29.32;47522.91;5051066;28;20252;-77
2023/05/02 11:09:21;;;;;;;4.30;2.23;;;;;;;-141.97;29.64;47534.44;5050247;28;20251;-77
2023/05/02 11:11:48;;;;;;;5.27;2.60;;;;;;;-141.97;29.79;47472.94;5032895;28;20181;-77
2023/05/02 11:14:28;;;;;;;5.67;2.63;;;;;;;-141.97;29.54;47555.59;5032409;28;20180;-79